sensor_id;sensor_type;location;lat;lon;timestamp;P1;durP1;ratioP1;P2;durP2;ratioP2
4766;SDS011;2397;53.576;9.746;2023-10-08T00:01:10;9.57;;;4.33;;
4766;SDS011;2397;53.576;9.746;2023-10-08T00:03:41;12.80;;;3.97;;
4766;SDS011;2397;53.576;9.746;2023-10-08T00:06:18;14.03;;;4.57;;
4766;SDS011;2397;53.576;9.746;2023-10-08T00:08:47;11.23;;;3.80;;
4766;SDS011;2397;53.576;9.746;2023-10-08T00:11:14;12.50;;;4.47;;
4766;SDS011;2397;53.576;9.746;2023-10-08T00:13:42;8.37;;;3.10;;
4766;SDS011;2397;53.576;9.746;2023-10-08T00:16:10;11.20;;;3.80;;
4766;SDS011;2397;53.576;9.746;2023-10-08T00:18:41;8.97;;;3.00;;
4766;SDS011;2397;53.576;9.746;2023-10-08T00:21:15;7.33;;;3.70;;
4766;SDS011;2397;53.576;9.746;2023-10-08T00:23:43;6.90;;;3.40;;
4766;SDS011;2397;53.576;9.746;2023-10-08T00:26:19;15.37;;;3.50;;
4766;SDS011;2397;53.576;9.746;2023-10-08T00:28:54;7.70;;;3.30;;
4766;SDS011;2397;53.576;9.746;2023-10-08T00:31:22;6.07;;;3.83;;
4766;SDS011;2397;53.576;9.746;2023-10-08T00:33:57;10.83;;;5.00;;
4766;SDS011;2397;53.576;9.746;2023-10-08T00:36:24;13.17;;;4.27;;
4766;SDS011;2397;53.576;9.746;2023-10-08T00:38:51;9.07;;;3.67;;
4766;SDS011;2397;53.576;9.746;2023-10-08T00:41:20;15.70;;;4.20;;
4766;SDS011;2397;53.576;9.746;2023-10-08T00:43:50;13.23;;;3.50;;
4766;SDS011;2397;53.576;9.746;2023-10-08T00:46:17;14.27;;;3.93;;
4766;SDS011;2397;53.576;9.746;2023-10-08T00:48:50;10.93;;;3.47;;
4766;SDS011;2397;53.576;9.746;2023-10-08T00:51:21;8.63;;;3.97;;
4766;SDS011;2397;53.576;9.746;2023-10-08T00:56:33;9.53;;;3.73;;
4766;SDS011;2397;53.576;9.746;2023-10-08T00:59:20;16.07;;;4.13;;
4766;SDS011;2397;53.576;9.746;2023-10-08T01:01:50;6.47;;;4.37;;
4766;SDS011;2397;53.576;9.746;2023-10-08T01:04:18;13.23;;;4.50;;
4766;SDS011;2397;53.576;9.746;2023-10-08T01:06:50;10.57;;;4.20;;
4766;SDS011;2397;53.576;9.746;2023-10-08T01:09:22;7.87;;;4.40;;
4766;SDS011;2397;53.576;9.746;2023-10-08T01:12:08;15.90;;;4.60;;
4766;SDS011;2397;53.576;9.746;2023-10-08T01:14:56;13.77;;;4.53;;
4766;SDS011;2397;53.576;9.746;2023-10-08T01:17:33;12.37;;;4.10;;
4766;SDS011;2397;53.576;9.746;2023-10-08T01:20:12;10.63;;;4.63;;
4766;SDS011;2397;53.576;9.746;2023-10-08T01:23:06;9.77;;;4.20;;
4766;SDS011;2397;53.576;9.746;2023-10-08T01:25:43;13.33;;;4.97;;
4766;SDS011;2397;53.576;9.746;2023-10-08T01:28:17;11.00;;;4.30;;
4766;SDS011;2397;53.576;9.746;2023-10-08T01:30:55;15.90;;;4.60;;
4766;SDS011;2397;53.576;9.746;2023-10-08T01:33:31;7.20;;;4.07;;
4766;SDS011;2397;53.576;9.746;2023-10-08T01:35:58;11.93;;;4.67;;
4766;SDS011;2397;53.576;9.746;2023-10-08T01:38:31;10.30;;;3.73;;
4766;SDS011;2397;53.576;9.746;2023-10-08T01:41:01;6.80;;;3.17;;
4766;SDS011;2397;53.576;9.746;2023-10-08T01:43:45;9.27;;;3.73;;
4766;SDS011;2397;53.576;9.746;2023-10-08T01:46:12;9.30;;;3.70;;
4766;SDS011;2397;53.576;9.746;2023-10-08T01:48:39;11.60;;;3.93;;
4766;SDS011;2397;53.576;9.746;2023-10-08T01:51:05;8.70;;;3.60;;
4766;SDS011;2397;53.576;9.746;2023-10-08T01:53:45;7.90;;;3.83;;
4766;SDS011;2397;53.576;9.746;2023-10-08T01:56:12;7.97;;;3.20;;
4766;SDS011;2397;53.576;9.746;2023-10-08T01:58:39;8.20;;;3.43;;
4766;SDS011;2397;53.576;9.746;2023-10-08T02:01:05;6.97;;;3.60;;
4766;SDS011;2397;53.576;9.746;2023-10-08T02:03:38;6.97;;;3.20;;
4766;SDS011;2397;53.576;9.746;2023-10-08T02:06:05;12.83;;;3.90;;
4766;SDS011;2397;53.576;9.746;2023-10-08T02:08:32;7.30;;;2.90;;
4766;SDS011;2397;53.576;9.746;2023-10-08T02:10:59;9.80;;;3.33;;
4766;SDS011;2397;53.576;9.746;2023-10-08T02:13:25;6.60;;;3.00;;
4766;SDS011;2397;53.576;9.746;2023-10-08T02:15:52;7.50;;;2.90;;
4766;SDS011;2397;53.576;9.746;2023-10-08T02:18:19;9.40;;;2.80;;
4766;SDS011;2397;53.576;9.746;2023-10-08T02:20:50;7.27;;;3.33;;
4766;SDS011;2397;53.576;9.746;2023-10-08T02:23:17;6.50;;;3.20;;
4766;SDS011;2397;53.576;9.746;2023-10-08T02:25:44;5.50;;;2.93;;
4766;SDS011;2397;53.576;9.746;2023-10-08T02:28:11;5.87;;;3.10;;
4766;SDS011;2397;53.576;9.746;2023-10-08T02:30:46;4.07;;;2.60;;
4766;SDS011;2397;53.576;9.746;2023-10-08T02:33:13;8.47;;;3.37;;
4766;SDS011;2397;53.576;9.746;2023-10-08T02:35:44;5.93;;;2.60;;
4766;SDS011;2397;53.576;9.746;2023-10-08T02:38:14;11.23;;;2.37;;
4766;SDS011;2397;53.576;9.746;2023-10-08T02:40:48;6.97;;;2.80;;
4766;SDS011;2397;53.576;9.746;2023-10-08T02:43:15;5.50;;;2.60;;
4766;SDS011;2397;53.576;9.746;2023-10-08T02:45:44;7.67;;;2.83;;
4766;SDS011;2397;53.576;9.746;2023-10-08T02:48:16;4.43;;;2.67;;
4766;SDS011;2397;53.576;9.746;2023-10-08T02:50:44;5.73;;;2.63;;
4766;SDS011;2397;53.576;9.746;2023-10-08T02:53:14;10.23;;;3.13;;
4766;SDS011;2397;53.576;9.746;2023-10-08T02:55:52;8.03;;;2.50;;
4766;SDS011;2397;53.576;9.746;2023-10-08T02:58:19;6.17;;;3.60;;
4766;SDS011;2397;53.576;9.746;2023-10-08T03:00:46;11.40;;;2.80;;
4766;SDS011;2397;53.576;9.746;2023-10-08T03:03:15;5.70;;;3.00;;
4766;SDS011;2397;53.576;9.746;2023-10-08T03:05:46;6.20;;;2.53;;
4766;SDS011;2397;53.576;9.746;2023-10-08T03:08:17;4.30;;;2.03;;
4766;SDS011;2397;53.576;9.746;2023-10-08T03:10:49;5.93;;;2.40;;
4766;SDS011;2397;53.576;9.746;2023-10-08T03:13:22;6.57;;;2.50;;
4766;SDS011;2397;53.576;9.746;2023-10-08T03:15:49;7.20;;;2.23;;
4766;SDS011;2397;53.576;9.746;2023-10-08T03:18:28;4.87;;;2.60;;
4766;SDS011;2397;53.576;9.746;2023-10-08T03:21:03;7.87;;;2.63;;
4766;SDS011;2397;53.576;9.746;2023-10-08T03:23:31;5.07;;;2.03;;
4766;SDS011;2397;53.576;9.746;2023-10-08T03:26:03;7.67;;;2.90;;
4766;SDS011;2397;53.576;9.746;2023-10-08T03:28:55;5.83;;;2.20;;
4766;SDS011;2397;53.576;9.746;2023-10-08T03:31:24;3.83;;;2.20;;
4766;SDS011;2397;53.576;9.746;2023-10-08T03:34:10;5.63;;;2.77;;
4766;SDS011;2397;53.576;9.746;2023-10-08T03:36:41;4.57;;;2.10;;
4766;SDS011;2397;53.576;9.746;2023-10-08T03:39:12;3.13;;;2.07;;
4766;SDS011;2397;53.576;9.746;2023-10-08T03:41:42;5.73;;;2.00;;
4766;SDS011;2397;53.576;9.746;2023-10-08T03:44:17;3.77;;;2.07;;
4766;SDS011;2397;53.576;9.746;2023-10-08T03:46:47;8.57;;;3.00;;
4766;SDS011;2397;53.576;9.746;2023-10-08T03:49:14;9.67;;;2.53;;
4766;SDS011;2397;53.576;9.746;2023-10-08T03:52:01;5.27;;;1.77;;
4766;SDS011;2397;53.576;9.746;2023-10-08T03:54:28;2.80;;;1.70;;
4766;SDS011;2397;53.576;9.746;2023-10-08T03:57:02;2.90;;;1.77;;
4766;SDS011;2397;53.576;9.746;2023-10-08T03:59:39;4.33;;;2.13;;
4766;SDS011;2397;53.576;9.746;2023-10-08T04:02:07;5.50;;;1.70;;
4766;SDS011;2397;53.576;9.746;2023-10-08T04:04:48;3.43;;;2.23;;
4766;SDS011;2397;53.576;9.746;2023-10-08T04:07:18;6.20;;;2.30;;
4766;SDS011;2397;53.576;9.746;2023-10-08T04:09:55;3.10;;;1.87;;
4766;SDS011;2397;53.576;9.746;2023-10-08T04:12:36;5.50;;;2.37;;
4766;SDS011;2397;53.576;9.746;2023-10-08T04:15:12;5.83;;;2.03;;
4766;SDS011;2397;53.576;9.746;2023-10-08T04:17:42;10.30;;;2.13;;
4766;SDS011;2397;53.576;9.746;2023-10-08T04:20:17;2.67;;;1.90;;
4766;SDS011;2397;53.576;9.746;2023-10-08T04:23:00;6.37;;;2.53;;
4766;SDS011;2397;53.576;9.746;2023-10-08T04:25:31;3.33;;;1.73;;
4766;SDS011;2397;53.576;9.746;2023-10-08T04:27:59;3.40;;;1.97;;
4766;SDS011;2397;53.576;9.746;2023-10-08T04:30:28;1.77;;;1.63;;
4766;SDS011;2397;53.576;9.746;2023-10-08T04:33:05;6.00;;;2.00;;
4766;SDS011;2397;53.576;9.746;2023-10-08T04:35:39;5.60;;;1.83;;
4766;SDS011;2397;53.576;9.746;2023-10-08T04:38:15;4.23;;;2.30;;
4766;SDS011;2397;53.576;9.746;2023-10-08T04:40:45;3.00;;;2.50;;
4766;SDS011;2397;53.576;9.746;2023-10-08T04:43:15;8.53;;;2.97;;
4766;SDS011;2397;53.576;9.746;2023-10-08T04:45:42;6.30;;;2.23;;
4766;SDS011;2397;53.576;9.746;2023-10-08T04:48:09;7.90;;;1.70;;
4766;SDS011;2397;53.576;9.746;2023-10-08T04:50:36;5.70;;;2.20;;
4766;SDS011;2397;53.576;9.746;2023-10-08T04:53:03;5.10;;;1.50;;
4766;SDS011;2397;53.576;9.746;2023-10-08T04:55:35;12.53;;;2.20;;
4766;SDS011;2397;53.576;9.746;2023-10-08T04:58:01;4.10;;;2.27;;
4766;SDS011;2397;53.576;9.746;2023-10-08T05:00:38;7.53;;;1.67;;
4766;SDS011;2397;53.576;9.746;2023-10-08T05:03:10;2.77;;;1.50;;
4766;SDS011;2397;53.576;9.746;2023-10-08T05:05:42;2.57;;;1.80;;
4766;SDS011;2397;53.576;9.746;2023-10-08T05:08:41;5.50;;;2.00;;
4766;SDS011;2397;53.576;9.746;2023-10-08T05:11:24;2.30;;;1.50;;
4766;SDS011;2397;53.576;9.746;2023-10-08T05:13:51;3.70;;;2.10;;
4766;SDS011;2397;53.576;9.746;2023-10-08T05:16:42;6.50;;;1.90;;
4766;SDS011;2397;53.576;9.746;2023-10-08T05:19:27;5.93;;;1.70;;
4766;SDS011;2397;53.576;9.746;2023-10-08T05:22:12;4.07;;;1.73;;
4766;SDS011;2397;53.576;9.746;2023-10-08T05:25:05;2.23;;;1.60;;
4766;SDS011;2397;53.576;9.746;2023-10-08T05:27:44;7.20;;;2.00;;
4766;SDS011;2397;53.576;9.746;2023-10-08T05:32:44;2.00;;;1.53;;
4766;SDS011;2397;53.576;9.746;2023-10-08T05:35:32;3.20;;;1.80;;
4766;SDS011;2397;53.576;9.746;2023-10-08T05:38:09;5.13;;;1.90;;
4766;SDS011;2397;53.576;9.746;2023-10-08T05:40:43;2.80;;;1.90;;
4766;SDS011;2397;53.576;9.746;2023-10-08T05:43:35;3.43;;;2.00;;
4766;SDS011;2397;53.576;9.746;2023-10-08T05:46:04;3.57;;;1.50;;
4766;SDS011;2397;53.576;9.746;2023-10-08T05:48:51;4.50;;;1.80;;
4766;SDS011;2397;53.576;9.746;2023-10-08T05:51:30;3.43;;;1.83;;
4766;SDS011;2397;53.576;9.746;2023-10-08T05:54:12;2.03;;;1.83;;
4766;SDS011;2397;53.576;9.746;2023-10-08T05:57:03;2.43;;;1.83;;
4766;SDS011;2397;53.576;9.746;2023-10-08T06:02:28;2.50;;;1.77;;
4766;SDS011;2397;53.576;9.746;2023-10-08T06:05:01;3.63;;;1.83;;
4766;SDS011;2397;53.576;9.746;2023-10-08T06:07:42;3.70;;;1.80;;
4766;SDS011;2397;53.576;9.746;2023-10-08T06:10:23;7.07;;;2.20;;
4766;SDS011;2397;53.576;9.746;2023-10-08T06:13:04;2.47;;;1.80;;
4766;SDS011;2397;53.576;9.746;2023-10-08T06:15:56;5.73;;;2.30;;
4766;SDS011;2397;53.576;9.746;2023-10-08T06:18:27;3.30;;;1.80;;
4766;SDS011;2397;53.576;9.746;2023-10-08T06:20:56;4.20;;;1.90;;
4766;SDS011;2397;53.576;9.746;2023-10-08T06:23:25;5.17;;;1.73;;
4766;SDS011;2397;53.576;9.746;2023-10-08T06:25:55;2.50;;;2.00;;
4766;SDS011;2397;53.576;9.746;2023-10-08T06:28:32;4.50;;;1.90;;
4766;SDS011;2397;53.576;9.746;2023-10-08T06:31:03;5.43;;;2.00;;
4766;SDS011;2397;53.576;9.746;2023-10-08T06:33:33;2.57;;;2.03;;
4766;SDS011;2397;53.576;9.746;2023-10-08T06:36:00;4.07;;;1.90;;
4766;SDS011;2397;53.576;9.746;2023-10-08T06:38:34;4.10;;;2.13;;
4766;SDS011;2397;53.576;9.746;2023-10-08T06:41:03;3.63;;;1.67;;
4766;SDS011;2397;53.576;9.746;2023-10-08T06:43:49;3.70;;;2.00;;
4766;SDS011;2397;53.576;9.746;2023-10-08T06:46:17;3.20;;;2.30;;
4766;SDS011;2397;53.576;9.746;2023-10-08T06:48:47;3.37;;;2.27;;
4766;SDS011;2397;53.576;9.746;2023-10-08T06:51:15;1.70;;;1.60;;
4766;SDS011;2397;53.576;9.746;2023-10-08T06:53:46;3.93;;;2.50;;
4766;SDS011;2397;53.576;9.746;2023-10-08T06:56:13;4.30;;;3.10;;
4766;SDS011;2397;53.576;9.746;2023-10-08T06:58:41;4.20;;;3.40;;
4766;SDS011;2397;53.576;9.746;2023-10-08T07:01:12;4.30;;;3.90;;
4766;SDS011;2397;53.576;9.746;2023-10-08T07:03:39;4.20;;;3.67;;
4766;SDS011;2397;53.576;9.746;2023-10-08T07:06:06;4.23;;;3.40;;
4766;SDS011;2397;53.576;9.746;2023-10-08T07:08:43;3.90;;;3.30;;
4766;SDS011;2397;53.576;9.746;2023-10-08T07:11:13;5.80;;;3.47;;
4766;SDS011;2397;53.576;9.746;2023-10-08T07:13:40;5.23;;;3.70;;
4766;SDS011;2397;53.576;9.746;2023-10-08T07:16:08;4.83;;;3.20;;
4766;SDS011;2397;53.576;9.746;2023-10-08T07:18:38;3.63;;;2.30;;
4766;SDS011;2397;53.576;9.746;2023-10-08T07:21:05;7.70;;;2.67;;
4766;SDS011;2397;53.576;9.746;2023-10-08T07:23:38;2.57;;;2.07;;
4766;SDS011;2397;53.576;9.746;2023-10-08T07:26:26;11.43;;;2.47;;
4766;SDS011;2397;53.576;9.746;2023-10-08T07:29:03;4.47;;;2.93;;
4766;SDS011;2397;53.576;9.746;2023-10-08T07:31:38;2.47;;;2.20;;
4766;SDS011;2397;53.576;9.746;2023-10-08T07:34:09;3.30;;;2.50;;
4766;SDS011;2397;53.576;9.746;2023-10-08T07:36:46;3.17;;;1.97;;
4766;SDS011;2397;53.576;9.746;2023-10-08T07:39:14;5.80;;;2.60;;
4766;SDS011;2397;53.576;9.746;2023-10-08T07:42:01;4.30;;;2.47;;
4766;SDS011;2397;53.576;9.746;2023-10-08T07:44:31;2.60;;;2.20;;
4766;SDS011;2397;53.576;9.746;2023-10-08T07:47:02;5.10;;;2.00;;
4766;SDS011;2397;53.576;9.746;2023-10-08T07:49:36;5.27;;;2.83;;
4766;SDS011;2397;53.576;9.746;2023-10-08T07:52:04;4.90;;;2.20;;
4766;SDS011;2397;53.576;9.746;2023-10-08T07:54:30;6.70;;;3.33;;
4766;SDS011;2397;53.576;9.746;2023-10-08T07:57:03;3.93;;;2.20;;
4766;SDS011;2397;53.576;9.746;2023-10-08T07:59:38;7.30;;;2.60;;
4766;SDS011;2397;53.576;9.746;2023-10-08T08:02:17;8.93;;;2.77;;
4766;SDS011;2397;53.576;9.746;2023-10-08T08:04:49;10.30;;;2.47;;
4766;SDS011;2397;53.576;9.746;2023-10-08T08:07:17;5.13;;;2.37;;
4766;SDS011;2397;53.576;9.746;2023-10-08T08:09:51;2.33;;;1.53;;
4766;SDS011;2397;53.576;9.746;2023-10-08T08:12:26;3.73;;;1.80;;
4766;SDS011;2397;53.576;9.746;2023-10-08T08:14:55;3.20;;;2.00;;
4766;SDS011;2397;53.576;9.746;2023-10-08T08:17:21;3.13;;;1.97;;
4766;SDS011;2397;53.576;9.746;2023-10-08T08:19:51;6.20;;;1.97;;
4766;SDS011;2397;53.576;9.746;2023-10-08T08:22:19;4.90;;;1.73;;
4766;SDS011;2397;53.576;9.746;2023-10-08T08:24:49;6.63;;;2.07;;
4766;SDS011;2397;53.576;9.746;2023-10-08T08:27:24;4.83;;;1.77;;
4766;SDS011;2397;53.576;9.746;2023-10-08T08:29:52;4.67;;;1.47;;
4766;SDS011;2397;53.576;9.746;2023-10-08T08:32:22;7.30;;;1.93;;
4766;SDS011;2397;53.576;9.746;2023-10-08T08:34:49;9.37;;;1.90;;
4766;SDS011;2397;53.576;9.746;2023-10-08T08:37:19;5.30;;;2.47;;
4766;SDS011;2397;53.576;9.746;2023-10-08T08:39:53;3.07;;;1.70;;
4766;SDS011;2397;53.576;9.746;2023-10-08T08:42:21;9.37;;;2.40;;
4766;SDS011;2397;53.576;9.746;2023-10-08T08:44:49;5.13;;;1.90;;
4766;SDS011;2397;53.576;9.746;2023-10-08T08:47:17;3.87;;;1.73;;
4766;SDS011;2397;53.576;9.746;2023-10-08T08:49:50;11.80;;;1.90;;
4766;SDS011;2397;53.576;9.746;2023-10-08T08:52:21;7.60;;;2.10;;
4766;SDS011;2397;53.576;9.746;2023-10-08T08:54:48;3.10;;;1.83;;
4766;SDS011;2397;53.576;9.746;2023-10-08T08:57:15;3.27;;;1.77;;
4766;SDS011;2397;53.576;9.746;2023-10-08T08:59:54;2.97;;;1.77;;
4766;SDS011;2397;53.576;9.746;2023-10-08T09:02:23;1.93;;;1.43;;
4766;SDS011;2397;53.576;9.746;2023-10-08T09:04:50;3.70;;;1.53;;
4766;SDS011;2397;53.576;9.746;2023-10-08T09:07:23;2.90;;;1.93;;
4766;SDS011;2397;53.576;9.746;2023-10-08T09:09:50;3.80;;;1.90;;
4766;SDS011;2397;53.576;9.746;2023-10-08T09:12:17;2.10;;;1.43;;
4766;SDS011;2397;53.576;9.746;2023-10-08T09:14:44;4.00;;;1.70;;
4766;SDS011;2397;53.576;9.746;2023-10-08T09:17:16;6.63;;;1.60;;
4766;SDS011;2397;53.576;9.746;2023-10-08T09:19:43;5.17;;;1.70;;
4766;SDS011;2397;53.576;9.746;2023-10-08T09:22:10;4.00;;;1.50;;
4766;SDS011;2397;53.576;9.746;2023-10-08T09:24:38;3.97;;;1.53;;
4766;SDS011;2397;53.576;9.746;2023-10-08T09:27:07;2.83;;;1.73;;
4766;SDS011;2397;53.576;9.746;2023-10-08T09:29:35;4.90;;;1.83;;
4766;SDS011;2397;53.576;9.746;2023-10-08T09:32:11;4.03;;;1.63;;
4766;SDS011;2397;53.576;9.746;2023-10-08T09:34:39;4.53;;;1.77;;
4766;SDS011;2397;53.576;9.746;2023-10-08T09:37:06;6.20;;;2.07;;
4766;SDS011;2397;53.576;9.746;2023-10-08T09:39:36;1.97;;;1.30;;
4766;SDS011;2397;53.576;9.746;2023-10-08T09:42:03;6.87;;;1.73;;
4766;SDS011;2397;53.576;9.746;2023-10-08T09:44:33;5.10;;;2.13;;
4766;SDS011;2397;53.576;9.746;2023-10-08T09:47:04;7.70;;;2.07;;
4766;SDS011;2397;53.576;9.746;2023-10-08T09:49:38;4.67;;;1.83;;
4766;SDS011;2397;53.576;9.746;2023-10-08T09:52:08;7.37;;;1.60;;
4766;SDS011;2397;53.576;9.746;2023-10-08T09:54:43;3.17;;;1.37;;
4766;SDS011;2397;53.576;9.746;2023-10-08T09:57:10;3.63;;;1.47;;
4766;SDS011;2397;53.576;9.746;2023-10-08T09:59:37;3.00;;;1.50;;
4766;SDS011;2397;53.576;9.746;2023-10-08T10:02:07;3.00;;;1.40;;
4766;SDS011;2397;53.576;9.746;2023-10-08T10:04:41;7.83;;;1.70;;
4766;SDS011;2397;53.576;9.746;2023-10-08T10:07:10;2.27;;;1.50;;
4766;SDS011;2397;53.576;9.746;2023-10-08T10:09:43;3.80;;;1.40;;
4766;SDS011;2397;53.576;9.746;2023-10-08T10:12:11;4.83;;;1.70;;
4766;SDS011;2397;53.576;9.746;2023-10-08T10:14:42;3.30;;;1.43;;
4766;SDS011;2397;53.576;9.746;2023-10-08T10:20:06;3.90;;;1.60;;
4766;SDS011;2397;53.576;9.746;2023-10-08T10:22:40;2.07;;;1.57;;
4766;SDS011;2397;53.576;9.746;2023-10-08T10:25:09;3.23;;;1.50;;
4766;SDS011;2397;53.576;9.746;2023-10-08T10:30:19;3.50;;;1.60;;
4766;SDS011;2397;53.576;9.746;2023-10-08T10:32:53;7.63;;;1.70;;
4766;SDS011;2397;53.576;9.746;2023-10-08T10:35:20;5.53;;;1.60;;
4766;SDS011;2397;53.576;9.746;2023-10-08T10:37:47;2.90;;;1.30;;
4766;SDS011;2397;53.576;9.746;2023-10-08T10:40:21;1.20;;;1.10;;
4766;SDS011;2397;53.576;9.746;2023-10-08T10:43:18;4.60;;;1.60;;
4766;SDS011;2397;53.576;9.746;2023-10-08T10:45:46;2.03;;;1.33;;
4766;SDS011;2397;53.576;9.746;2023-10-08T10:48:14;2.57;;;1.40;;
4766;SDS011;2397;53.576;9.746;2023-10-08T10:50:47;2.83;;;1.37;;
4766;SDS011;2397;53.576;9.746;2023-10-08T10:53:35;3.37;;;1.57;;
4766;SDS011;2397;53.576;9.746;2023-10-08T10:56:11;2.20;;;1.30;;
4766;SDS011;2397;53.576;9.746;2023-10-08T10:58:46;1.30;;;1.20;;
4766;SDS011;2397;53.576;9.746;2023-10-08T11:01:26;2.17;;;1.23;;
4766;SDS011;2397;53.576;9.746;2023-10-08T11:03:56;3.53;;;1.63;;
4766;SDS011;2397;53.576;9.746;2023-10-08T11:06:26;3.50;;;1.73;;
4766;SDS011;2397;53.576;9.746;2023-10-08T11:08:54;1.50;;;1.27;;
4766;SDS011;2397;53.576;9.746;2023-10-08T11:11:26;2.73;;;1.27;;
4766;SDS011;2397;53.576;9.746;2023-10-08T11:13:56;3.80;;;1.60;;
4766;SDS011;2397;53.576;9.746;2023-10-08T11:16:27;3.33;;;1.67;;
4766;SDS011;2397;53.576;9.746;2023-10-08T11:18:53;2.37;;;1.63;;
4766;SDS011;2397;53.576;9.746;2023-10-08T11:21:24;2.03;;;1.43;;
4766;SDS011;2397;53.576;9.746;2023-10-08T11:23:52;6.87;;;2.10;;
4766;SDS011;2397;53.576;9.746;2023-10-08T11:26:20;2.90;;;1.87;;
4766;SDS011;2397;53.576;9.746;2023-10-08T11:28:58;3.67;;;1.47;;
4766;SDS011;2397;53.576;9.746;2023-10-08T11:31:27;4.13;;;1.20;;
4766;SDS011;2397;53.576;9.746;2023-10-08T11:34:01;3.40;;;1.40;;
4766;SDS011;2397;53.576;9.746;2023-10-08T11:36:36;4.03;;;1.87;;
4766;SDS011;2397;53.576;9.746;2023-10-08T11:39:16;3.53;;;1.30;;
4766;SDS011;2397;53.576;9.746;2023-10-08T11:41:58;1.50;;;1.30;;
4766;SDS011;2397;53.576;9.746;2023-10-08T11:44:31;3.70;;;1.83;;
4766;SDS011;2397;53.576;9.746;2023-10-08T11:47:02;3.30;;;1.73;;
4766;SDS011;2397;53.576;9.746;2023-10-08T11:49:40;3.00;;;1.43;;
4766;SDS011;2397;53.576;9.746;2023-10-08T11:52:14;1.67;;;1.37;;
4766;SDS011;2397;53.576;9.746;2023-10-08T11:54:48;3.73;;;2.33;;
4766;SDS011;2397;53.576;9.746;2023-10-08T11:57:18;4.80;;;1.60;;
4766;SDS011;2397;53.576;9.746;2023-10-08T11:59:49;1.77;;;1.20;;
4766;SDS011;2397;53.576;9.746;2023-10-08T12:02:15;2.80;;;1.40;;
4766;SDS011;2397;53.576;9.746;2023-10-08T12:04:43;2.80;;;1.53;;
4766;SDS011;2397;53.576;9.746;2023-10-08T12:07:14;3.50;;;1.17;;
4766;SDS011;2397;53.576;9.746;2023-10-08T12:09:44;2.57;;;1.50;;
4766;SDS011;2397;53.576;9.746;2023-10-08T12:12:15;2.00;;;1.50;;
4766;SDS011;2397;53.576;9.746;2023-10-08T12:14:42;1.77;;;1.37;;
4766;SDS011;2397;53.576;9.746;2023-10-08T12:17:11;2.13;;;1.37;;
4766;SDS011;2397;53.576;9.746;2023-10-08T12:19:38;2.30;;;1.50;;
4766;SDS011;2397;53.576;9.746;2023-10-08T12:22:09;3.03;;;1.77;;
4766;SDS011;2397;53.576;9.746;2023-10-08T12:24:37;3.63;;;1.33;;
4766;SDS011;2397;53.576;9.746;2023-10-08T12:27:04;2.80;;;1.57;;
4766;SDS011;2397;53.576;9.746;2023-10-08T12:29:31;2.17;;;1.80;;
4766;SDS011;2397;53.576;9.746;2023-10-08T12:31:59;2.93;;;1.63;;
4766;SDS011;2397;53.576;9.746;2023-10-08T12:34:26;2.93;;;1.93;;
4766;SDS011;2397;53.576;9.746;2023-10-08T12:36:56;3.53;;;1.60;;
4766;SDS011;2397;53.576;9.746;2023-10-08T12:39:22;3.10;;;1.77;;
4766;SDS011;2397;53.576;9.746;2023-10-08T12:41:54;1.50;;;1.40;;
4766;SDS011;2397;53.576;9.746;2023-10-08T12:44:23;7.13;;;2.03;;
4766;SDS011;2397;53.576;9.746;2023-10-08T12:46:50;2.60;;;1.53;;
4766;SDS011;2397;53.576;9.746;2023-10-08T12:49:17;6.97;;;1.97;;
4766;SDS011;2397;53.576;9.746;2023-10-08T12:51:47;2.17;;;1.57;;
4766;SDS011;2397;53.576;9.746;2023-10-08T12:54:14;1.93;;;1.60;;
4766;SDS011;2397;53.576;9.746;2023-10-08T12:56:48;4.73;;;1.80;;
4766;SDS011;2397;53.576;9.746;2023-10-08T12:59:15;2.10;;;1.30;;
4766;SDS011;2397;53.576;9.746;2023-10-08T13:01:50;2.67;;;1.77;;
4766;SDS011;2397;53.576;9.746;2023-10-08T13:04:23;3.10;;;1.80;;
4766;SDS011;2397;53.576;9.746;2023-10-08T13:07:01;8.87;;;2.10;;
4766;SDS011;2397;53.576;9.746;2023-10-08T13:09:29;2.47;;;1.53;;
4766;SDS011;2397;53.576;9.746;2023-10-08T13:12:03;2.47;;;1.50;;
4766;SDS011;2397;53.576;9.746;2023-10-08T13:14:31;2.50;;;1.57;;
4766;SDS011;2397;53.576;9.746;2023-10-08T13:17:01;2.43;;;1.60;;
4766;SDS011;2397;53.576;9.746;2023-10-08T13:19:28;2.83;;;1.60;;
4766;SDS011;2397;53.576;9.746;2023-10-08T13:21:57;3.20;;;1.37;;
4766;SDS011;2397;53.576;9.746;2023-10-08T13:24:23;2.23;;;1.30;;
4766;SDS011;2397;53.576;9.746;2023-10-08T13:26:54;4.13;;;1.80;;
4766;SDS011;2397;53.576;9.746;2023-10-08T13:29:20;4.57;;;1.73;;
4766;SDS011;2397;53.576;9.746;2023-10-08T13:31:47;3.23;;;1.27;;
4766;SDS011;2397;53.576;9.746;2023-10-08T13:34:14;2.33;;;1.37;;
4766;SDS011;2397;53.576;9.746;2023-10-08T13:36:43;3.30;;;1.50;;
4766;SDS011;2397;53.576;9.746;2023-10-08T13:39:13;2.63;;;1.57;;
4766;SDS011;2397;53.576;9.746;2023-10-08T13:41:45;1.97;;;1.33;;
4766;SDS011;2397;53.576;9.746;2023-10-08T13:44:15;2.43;;;1.40;;
4766;SDS011;2397;53.576;9.746;2023-10-08T13:46:41;2.90;;;1.83;;
4766;SDS011;2397;53.576;9.746;2023-10-08T13:49:17;2.87;;;1.60;;
4766;SDS011;2397;53.576;9.746;2023-10-08T13:51:45;3.03;;;1.50;;
4766;SDS011;2397;53.576;9.746;2023-10-08T13:54:13;1.93;;;1.50;;
4766;SDS011;2397;53.576;9.746;2023-10-08T13:56:41;2.43;;;1.60;;
4766;SDS011;2397;53.576;9.746;2023-10-08T13:59:14;1.70;;;1.57;;
4766;SDS011;2397;53.576;9.746;2023-10-08T14:01:43;2.67;;;1.50;;
4766;SDS011;2397;53.576;9.746;2023-10-08T14:04:13;2.33;;;1.43;;
4766;SDS011;2397;53.576;9.746;2023-10-08T14:06:46;2.40;;;1.57;;
4766;SDS011;2397;53.576;9.746;2023-10-08T14:09:20;2.60;;;1.60;;
4766;SDS011;2397;53.576;9.746;2023-10-08T14:11:48;3.07;;;2.10;;
4766;SDS011;2397;53.576;9.746;2023-10-08T14:14:19;2.70;;;1.97;;
4766;SDS011;2397;53.576;9.746;2023-10-08T14:16:50;8.40;;;2.20;;
4766;SDS011;2397;53.576;9.746;2023-10-08T14:19:20;2.20;;;1.67;;
4766;SDS011;2397;53.576;9.746;2023-10-08T14:21:55;4.80;;;1.87;;
4766;SDS011;2397;53.576;9.746;2023-10-08T14:24:29;3.33;;;1.53;;
4766;SDS011;2397;53.576;9.746;2023-10-08T14:27:01;3.83;;;1.70;;
4766;SDS011;2397;53.576;9.746;2023-10-08T14:29:36;3.00;;;1.60;;
4766;SDS011;2397;53.576;9.746;2023-10-08T14:32:07;5.20;;;1.40;;
4766;SDS011;2397;53.576;9.746;2023-10-08T14:34:36;2.80;;;1.70;;
4766;SDS011;2397;53.576;9.746;2023-10-08T14:37:09;7.30;;;1.57;;
4766;SDS011;2397;53.576;9.746;2023-10-08T14:39:54;3.40;;;1.80;;
4766;SDS011;2397;53.576;9.746;2023-10-08T14:42:40;2.73;;;1.50;;
4766;SDS011;2397;53.576;9.746;2023-10-08T14:45:25;2.10;;;1.67;;
4766;SDS011;2397;53.576;9.746;2023-10-08T14:47:56;6.90;;;2.10;;
4766;SDS011;2397;53.576;9.746;2023-10-08T14:50:24;1.67;;;1.50;;
4766;SDS011;2397;53.576;9.746;2023-10-08T14:52:57;4.53;;;1.73;;
4766;SDS011;2397;53.576;9.746;2023-10-08T14:55:27;1.77;;;1.40;;
4766;SDS011;2397;53.576;9.746;2023-10-08T14:57:55;2.93;;;1.80;;
4766;SDS011;2397;53.576;9.746;2023-10-08T15:00:22;2.67;;;1.70;;
4766;SDS011;2397;53.576;9.746;2023-10-08T15:02:52;3.77;;;1.93;;
4766;SDS011;2397;53.576;9.746;2023-10-08T15:05:22;3.40;;;2.00;;
4766;SDS011;2397;53.576;9.746;2023-10-08T15:07:49;2.27;;;1.77;;
4766;SDS011;2397;53.576;9.746;2023-10-08T15:10:17;2.30;;;1.47;;
4766;SDS011;2397;53.576;9.746;2023-10-08T15:12:44;4.80;;;1.53;;
4766;SDS011;2397;53.576;9.746;2023-10-08T15:15:11;8.70;;;1.80;;
4766;SDS011;2397;53.576;9.746;2023-10-08T15:17:41;2.77;;;2.00;;
4766;SDS011;2397;53.576;9.746;2023-10-08T15:20:10;1.90;;;1.70;;
4766;SDS011;2397;53.576;9.746;2023-10-08T15:22:43;5.53;;;2.00;;
4766;SDS011;2397;53.576;9.746;2023-10-08T15:25:11;3.23;;;1.53;;
4766;SDS011;2397;53.576;9.746;2023-10-08T15:27:43;5.00;;;1.83;;
4766;SDS011;2397;53.576;9.746;2023-10-08T15:30:11;6.30;;;1.70;;
4766;SDS011;2397;53.576;9.746;2023-10-08T15:32:42;5.37;;;2.30;;
4766;SDS011;2397;53.576;9.746;2023-10-08T15:35:11;3.87;;;1.70;;
4766;SDS011;2397;53.576;9.746;2023-10-08T15:37:41;2.83;;;1.63;;
4766;SDS011;2397;53.576;9.746;2023-10-08T15:40:08;5.43;;;1.53;;
4766;SDS011;2397;53.576;9.746;2023-10-08T15:42:48;4.20;;;1.53;;
4766;SDS011;2397;53.576;9.746;2023-10-08T15:45:18;5.70;;;2.27;;
4766;SDS011;2397;53.576;9.746;2023-10-08T15:47:47;3.17;;;2.00;;
4766;SDS011;2397;53.576;9.746;2023-10-08T15:50:15;3.50;;;2.10;;
4766;SDS011;2397;53.576;9.746;2023-10-08T15:52:43;2.97;;;2.00;;
4766;SDS011;2397;53.576;9.746;2023-10-08T15:55:09;2.77;;;2.20;;
4766;SDS011;2397;53.576;9.746;2023-10-08T15:57:37;3.80;;;2.10;;